createdAt,value
2017-06-28T00:01:57.938Z,58.30
2017-06-28T00:04:31.701Z,58.30
2017-06-28T00:07:05.285Z,59.60
2017-06-28T00:09:39.142Z,59.40
2017-06-28T00:12:12.750Z,59.80
2017-06-28T00:14:47.450Z,61.00
2017-06-28T00:17:21.290Z,60.10
2017-06-28T00:19:55.147Z,59.60
2017-06-28T00:22:28.836Z,60.10
2017-06-28T00:25:02.661Z,60.10
2017-06-28T00:27:36.347Z,60.10
2017-06-28T00:30:10.255Z,59.90
2017-06-28T00:32:43.953Z,60.20
2017-06-28T00:35:18.817Z,60.20
2017-06-28T00:37:53.217Z,61.40
2017-06-28T00:40:27.264Z,60.30
2017-06-28T00:43:01.805Z,61.10
2017-06-28T00:45:35.705Z,60.80
2017-06-28T00:48:10.213Z,60.30
2017-06-28T00:50:44.781Z,62.70
2017-06-28T00:53:18.722Z,61.90
2017-06-28T00:55:52.505Z,62.00
2017-06-28T00:58:26.158Z,62.80
2017-06-28T01:00:59.909Z,61.90
2017-06-28T01:03:33.539Z,61.70
2017-06-28T01:06:08.113Z,61.90
2017-06-28T01:08:42.586Z,62.80
2017-06-28T01:11:16.622Z,62.80
2017-06-28T01:13:51.217Z,63.40
2017-06-28T01:16:25.114Z,62.70
2017-06-28T01:18:59.549Z,63.50
2017-06-28T01:21:33.527Z,63.50
2017-06-28T01:24:07.977Z,63.30
2017-06-28T01:26:42.042Z,63.40
2017-06-28T01:29:16.518Z,61.70
2017-06-28T01:31:50.745Z,61.80
2017-06-28T01:34:25.278Z,62.50
2017-06-28T01:36:59.131Z,63.40
2017-06-28T01:39:32.860Z,63.40
2017-06-28T01:42:06.553Z,63.60
2017-06-28T01:44:40.148Z,64.80
2017-06-28T01:47:13.897Z,64.40
2017-06-28T01:49:48.297Z,65.20
2017-06-28T01:52:22.203Z,64.50
2017-06-28T01:54:56.721Z,65.30
2017-06-28T01:57:31.493Z,65.50
2017-06-28T02:00:06.566Z,66.10
2017-06-28T02:02:41.196Z,66.10
2017-06-28T02:05:14.841Z,66.00
2017-06-28T02:07:48.530Z,65.30
2017-06-28T02:10:23.043Z,66.40
2017-06-28T02:12:57.112Z,66.40
2017-06-28T02:15:31.575Z,66.30
2017-06-28T02:18:05.554Z,66.30
2017-06-28T02:20:40.089Z,65.80
2017-06-28T02:23:13.886Z,66.80
2017-06-28T02:25:47.542Z,66.90
2017-06-28T02:28:21.305Z,65.20
2017-06-28T02:30:54.973Z,65.20
2017-06-28T02:33:29.552Z,66.00
2017-06-28T02:36:03.185Z,65.50
2017-06-28T02:38:37.614Z,66.80
2017-06-28T02:41:12.308Z,66.20
2017-06-28T02:43:46.405Z,66.20
2017-06-28T02:46:20.970Z,65.20
2017-06-28T02:48:54.673Z,65.90
2017-06-28T02:51:28.429Z,65.10
2017-06-28T02:54:03.109Z,66.90
2017-06-28T02:56:37.996Z,66.50
2017-06-28T02:59:12.206Z,66.50
2017-06-28T03:01:46.716Z,65.70
2017-06-28T03:04:20.550Z,66.50
2017-06-28T03:06:55.789Z,66.00
2017-06-28T03:09:29.829Z,66.00
2017-06-28T03:12:04.416Z,66.10
2017-06-28T03:14:38.522Z,66.10
2017-06-28T03:17:13.881Z,67.40
2017-06-28T03:19:48.426Z,66.60
2017-06-28T03:22:22.266Z,66.20
2017-06-28T03:24:56.013Z,65.90
2017-06-28T03:27:29.853Z,66.20
2017-06-28T03:30:03.705Z,66.60
2017-06-28T03:32:38.973Z,67.10
2017-06-28T03:35:13.933Z,67.30
2017-06-28T03:37:47.789Z,67.30
2017-06-28T03:40:22.460Z,67.20
2017-06-28T03:42:57.065Z,67.40
2017-06-28T03:45:31.809Z,67.00
2017-06-28T03:48:05.830Z,67.00
2017-06-28T03:50:39.700Z,66.50
2017-06-28T03:53:14.162Z,66.50
2017-06-28T03:55:48.789Z,66.10
2017-06-28T03:58:23.388Z,66.60
2017-06-28T04:00:58.132Z,66.20
2017-06-28T04:03:32.107Z,66.20
2017-06-28T04:06:05.921Z,66.60
2017-06-28T04:08:39.658Z,66.90
2017-06-28T04:11:13.369Z,67.00
2017-06-28T04:13:47.754Z,67.30
2017-06-28T04:16:22.621Z,67.80
2017-06-28T04:18:57.310Z,67.10
2017-06-28T04:21:31.978Z,67.00
2017-06-28T04:24:05.820Z,66.90
2017-06-28T04:26:39.689Z,67.20
2017-06-28T04:29:14.225Z,68.00
2017-06-28T04:31:48.064Z,67.70
2017-06-28T04:34:22.613Z,67.60
2017-06-28T04:36:57.185Z,69.00
2017-06-28T04:39:31.737Z,66.50
2017-06-28T04:42:06.978Z,67.10
2017-06-28T04:44:42.109Z,68.60
2017-06-28T04:47:16.201Z,68.50
2017-06-28T04:49:49.929Z,69.70
2017-06-28T04:52:27.564Z,71.80
2017-06-28T04:55:01.418Z,71.70
2017-06-28T04:57:35.146Z,71.50
2017-06-28T05:00:08.804Z,73.90
2017-06-28T05:02:43.409Z,75.00
2017-06-28T05:05:18.093Z,77.80
2017-06-28T05:07:52.286Z,77.60
2017-06-28T05:10:26.834Z,76.50
2017-06-28T05:13:01.619Z,77.80
2017-06-28T05:15:35.475Z,77.90
2017-06-28T05:18:09.218Z,77.50
2017-06-28T05:20:42.857Z,78.00
2017-06-28T05:23:17.485Z,77.60
2017-06-28T05:25:52.041Z,77.30
2017-06-28T05:28:25.971Z,77.30
2017-06-28T05:31:00.464Z,78.50
2017-06-28T05:33:34.288Z,77.40
2017-06-28T05:36:08.720Z,77.50
2017-06-28T05:38:44.157Z,78.70
2017-06-28T05:41:18.088Z,78.70
2017-06-28T05:43:52.716Z,80.10
2017-06-28T05:46:26.716Z,80.10
2017-06-28T05:49:00.569Z,78.00
2017-06-28T05:51:34.267Z,77.00
2017-06-28T05:54:07.920Z,77.70
2017-06-28T05:56:42.318Z,78.20
2017-06-28T05:59:17.165Z,78.30
2017-06-28T06:01:51.976Z,76.30
2017-06-28T06:04:26.734Z,76.50
2017-06-28T06:07:00.789Z,77.00
2017-06-28T06:09:34.526Z,77.50
2017-06-28T06:12:09.809Z,76.70
2017-06-28T06:14:43.993Z,76.70
2017-06-28T06:17:18.441Z,78.30
2017-06-28T06:19:52.472Z,78.10
2017-06-28T06:22:26.309Z,77.00
2017-06-28T06:25:00.134Z,78.50
2017-06-28T06:27:33.738Z,77.60
2017-06-28T06:30:08.533Z,78.70
2017-06-28T06:32:43.050Z,78.00
2017-06-28T06:35:18.696Z,78.20
2017-06-28T06:37:52.443Z,77.30
2017-06-28T06:40:26.192Z,79.20
2017-06-28T06:42:59.832Z,77.40
2017-06-28T06:45:33.770Z,77.30
2017-06-28T06:48:08.973Z,76.40
2017-06-28T06:50:43.110Z,76.10
2017-06-28T06:53:16.745Z,75.30
2017-06-28T06:55:50.525Z,74.90
2017-06-28T06:58:24.230Z,74.10
2017-06-28T07:00:58.729Z,74.20
2017-06-28T07:03:32.706Z,74.30
2017-06-28T07:06:07.265Z,77.10
2017-06-28T07:08:41.066Z,76.10
2017-06-28T07:11:14.825Z,76.70
2017-06-28T07:13:49.417Z,76.80
2017-06-28T07:16:23.220Z,78.20
2017-06-28T07:18:58.589Z,77.80
2017-06-28T07:21:32.644Z,77.80
2017-06-28T07:24:07.233Z,80.10
2017-06-28T07:26:41.857Z,77.40
2017-06-28T07:29:16.235Z,79.50
2017-06-28T07:31:50.186Z,79.50
2017-06-28T07:34:24.565Z,80.60
2017-06-28T07:36:58.445Z,80.50
2017-06-28T07:39:32.157Z,80.90
2017-06-28T07:42:05.866Z,80.70
2017-06-28T07:44:40.302Z,78.20
2017-06-28T07:47:14.352Z,78.10
2017-06-28T07:49:48.117Z,77.90
2017-06-28T07:52:21.797Z,77.60
2017-06-28T07:54:55.426Z,78.50
2017-06-28T07:57:29.209Z,81.30
2017-06-28T08:00:02.836Z,78.60
2017-06-28T08:02:37.529Z,79.80
2017-06-28T08:05:12.114Z,78.20
2017-06-28T08:07:45.922Z,80.70
2017-06-28T08:10:19.521Z,81.60
2017-06-28T08:12:53.248Z,80.70
2017-06-28T08:15:26.856Z,83.10
2017-06-28T08:18:00.700Z,83.30
2017-06-28T08:20:34.529Z,81.30
2017-06-28T08:23:09.066Z,81.30
2017-06-28T08:25:43.758Z,81.80
2017-06-28T08:28:17.887Z,81.80
2017-06-28T08:30:52.288Z,80.90
2017-06-28T08:33:27.149Z,80.80
2017-06-28T08:36:01.945Z,79.80
2017-06-28T08:38:35.989Z,79.70
2017-06-28T08:41:10.382Z,80.40
2017-06-28T08:43:45.132Z,80.60
2017-06-28T08:46:19.040Z,81.00
2017-06-28T08:48:54.501Z,81.30
2017-06-28T08:51:28.151Z,81.20
2017-06-28T08:54:02.148Z,79.90
2017-06-28T08:56:36.638Z,79.10
2017-06-28T08:59:10.498Z,78.90
2017-06-28T09:01:44.245Z,78.10
2017-06-28T09:04:18.766Z,78.50
2017-06-28T09:06:52.677Z,78.20
2017-06-28T09:09:26.349Z,77.60
2017-06-28T09:11:59.974Z,78.20
2017-06-28T09:14:33.734Z,78.80
2017-06-28T09:17:08.285Z,78.00
2017-06-28T09:19:41.941Z,79.60
2017-06-28T09:22:15.717Z,79.50
2017-06-28T09:24:50.440Z,78.70
2017-06-28T09:27:24.493Z,78.70
2017-06-28T09:29:58.200Z,78.00
2017-06-28T09:32:32.825Z,77.10
2017-06-28T09:35:07.888Z,76.90
2017-06-28T09:37:42.401Z,75.70
2017-06-28T09:40:16.664Z,75.80
2017-06-28T09:42:51.037Z,74.50
2017-06-28T09:45:25.133Z,74.50
2017-06-28T09:47:59.650Z,72.80
2017-06-28T09:50:33.358Z,75.90
2017-06-28T09:53:06.984Z,76.10
2017-06-28T09:55:40.781Z,74.30
2017-06-28T09:58:15.337Z,72.40
2017-06-28T10:00:49.198Z,69.60
2017-06-28T10:03:24.562Z,69.70
2017-06-28T10:05:59.683Z,69.70
2017-06-28T10:08:33.421Z,62.80
2017-06-28T10:11:07.185Z,66.00
2017-06-28T10:13:40.976Z,63.00
2017-06-28T10:16:14.733Z,64.40
2017-06-28T10:18:49.132Z,66.70
2017-06-28T10:21:23.327Z,66.80
2017-06-28T10:23:56.950Z,67.00
2017-06-28T10:26:30.607Z,69.10
2017-06-28T10:29:04.268Z,65.40
2017-06-28T10:31:38.837Z,64.30
2017-06-28T10:34:13.503Z,63.60
2017-06-28T10:36:48.378Z,63.60
2017-06-28T10:39:22.088Z,65.60
2017-06-28T10:41:55.809Z,64.70
2017-06-28T10:44:31.117Z,64.40
2017-06-28T10:47:05.873Z,66.40
2017-06-28T10:49:39.925Z,66.30
2017-06-28T10:52:14.625Z,68.00
2017-06-28T10:54:48.513Z,67.80
2017-06-28T10:57:22.477Z,69.70
2017-06-28T10:59:56.080Z,70.60
2017-06-28T11:02:29.879Z,71.20
2017-06-28T11:05:04.621Z,70.80
2017-06-28T11:07:39.708Z,73.30
2017-06-28T11:10:13.517Z,73.20
2017-06-28T11:12:47.336Z,75.90
2017-06-28T11:15:20.942Z,74.60
2017-06-28T11:17:55.433Z,77.60
2017-06-28T11:20:29.371Z,77.60
2017-06-28T11:23:03.966Z,76.00
2017-06-28T11:25:37.877Z,76.00
2017-06-28T11:28:12.298Z,74.00
2017-06-28T11:30:46.315Z,74.00
2017-06-28T11:33:20.129Z,74.30
2017-06-28T11:35:53.716Z,72.10
2017-06-28T11:38:27.675Z,71.00
2017-06-28T11:41:01.427Z,68.70
2017-06-28T11:43:35.253Z,71.50
2017-06-28T11:46:08.960Z,69.80
2017-06-28T11:48:42.796Z,69.00
2017-06-28T11:51:17.225Z,68.60
2017-06-28T11:53:51.125Z,68.60
2017-06-28T11:56:25.644Z,69.00
2017-06-28T11:59:01.122Z,68.20
2017-06-28T12:01:34.926Z,68.20
2017-06-28T12:04:09.373Z,64.80
2017-06-28T12:06:43.280Z,64.90
2017-06-28T12:09:17.066Z,63.90
2017-06-28T12:11:50.790Z,62.80
2017-06-28T12:14:25.261Z,61.10
2017-06-28T12:17:00.037Z,62.00
2017-06-28T12:19:34.218Z,61.10
2017-06-28T12:22:07.830Z,59.50
2017-06-28T12:24:42.433Z,58.40
2017-06-28T12:27:16.361Z,58.40
2017-06-28T12:29:51.010Z,57.90
2017-06-28T12:32:25.070Z,57.80
2017-06-28T12:35:00.746Z,57.00
2017-06-28T12:37:34.468Z,59.50
2017-06-28T12:40:08.274Z,57.70
2017-06-28T12:42:41.906Z,57.20
2017-06-28T12:45:17.218Z,56.20
2017-06-28T12:47:51.901Z,55.90
2017-06-28T12:50:26.887Z,57.20
2017-06-28T12:53:00.745Z,57.30
2017-06-28T12:55:35.428Z,57.00
2017-06-28T12:58:09.349Z,57.20
2017-06-28T13:00:43.193Z,55.20
2017-06-28T13:03:16.933Z,55.20
2017-06-28T13:05:51.429Z,54.80
2017-06-28T13:08:25.136Z,55.30
2017-06-28T13:11:00.038Z,56.50
2017-06-28T13:13:34.626Z,56.50
2017-06-28T13:16:09.502Z,55.30
2017-06-28T13:18:43.235Z,55.30
2017-06-28T13:21:17.737Z,53.30
2017-06-28T13:23:51.561Z,53.20
2017-06-28T13:26:26.269Z,55.10
2017-06-28T13:29:00.757Z,54.50
2017-06-28T13:31:34.564Z,53.80
2017-06-28T13:34:08.270Z,52.10
2017-06-28T13:36:42.996Z,50.10
2017-06-28T13:39:17.517Z,51.80
2017-06-28T13:41:51.598Z,51.80
2017-06-28T13:44:26.164Z,48.70
2017-06-28T13:47:00.949Z,50.90
2017-06-28T13:49:34.796Z,50.60
2017-06-28T13:52:08.661Z,50.70
2017-06-28T13:54:43.204Z,50.90
2017-06-28T13:57:16.950Z,53.60
2017-06-28T13:59:51.453Z,48.40
2017-06-28T14:02:25.457Z,48.40
2017-06-28T14:04:59.302Z,49.30
2017-06-28T14:07:35.873Z,46.60
2017-06-28T14:10:09.574Z,46.50
2017-06-28T14:12:44.243Z,49.40
2017-06-28T14:15:19.101Z,45.50
2017-06-28T14:17:53.089Z,44.80
2017-06-28T14:20:26.857Z,45.20
2017-06-28T14:23:01.405Z,45.60
2017-06-28T14:25:35.289Z,44.80
2017-06-28T14:28:10.013Z,50.30
2017-06-28T14:30:44.821Z,50.60
2017-06-28T14:33:18.913Z,50.60
2017-06-28T14:35:53.456Z,50.30
2017-06-28T14:38:28.841Z,52.40
2017-06-28T14:41:02.744Z,52.30
2017-06-28T14:43:36.561Z,52.20
2017-06-28T14:46:11.041Z,51.20
2017-06-28T14:48:45.908Z,49.70
2017-06-28T14:51:20.495Z,47.80
2017-06-28T14:53:54.634Z,47.80
2017-06-28T14:56:28.464Z,48.30
2017-06-28T14:59:02.209Z,45.10
2017-06-28T15:01:36.729Z,42.20
2017-06-28T15:04:10.937Z,42.10
2017-06-28T15:06:44.526Z,41.80
2017-06-28T15:09:18.246Z,42.20
2017-06-28T15:11:51.985Z,40.30
2017-06-28T15:14:25.639Z,40.30
2017-06-28T15:16:59.291Z,41.10
2017-06-28T15:19:33.957Z,41.60
2017-06-28T15:22:08.465Z,40.60
2017-06-28T15:24:42.378Z,39.90
2017-06-28T15:27:17.720Z,39.30
2017-06-28T15:29:51.693Z,39.30
2017-06-28T15:32:26.265Z,40.00
2017-06-28T15:35:00.957Z,38.40
2017-06-28T15:37:34.773Z,38.00
2017-06-28T15:40:08.492Z,37.50
2017-06-28T15:42:42.270Z,36.20
2017-06-28T15:45:16.116Z,36.70
2017-06-28T15:47:49.673Z,37.00
2017-06-28T15:50:23.421Z,35.70
2017-06-28T15:52:56.981Z,35.60
2017-06-28T15:55:31.583Z,34.90
2017-06-28T15:58:05.497Z,34.90
2017-06-28T16:00:39.993Z,34.70
2017-06-28T16:03:14.562Z,34.50
2017-06-28T16:05:48.486Z,34.50
2017-06-28T16:08:23.103Z,34.00
2017-06-28T16:10:57.885Z,33.10
2017-06-28T16:13:31.841Z,33.10
2017-06-28T16:16:05.625Z,33.70
2017-06-28T16:18:39.345Z,33.70
2017-06-28T16:21:13.133Z,33.70
2017-06-28T16:23:46.748Z,34.20
2017-06-28T16:26:21.426Z,33.30
2017-06-28T16:28:55.237Z,33.30
2017-06-28T16:31:28.977Z,34.70
2017-06-28T16:34:02.737Z,35.20
2017-06-28T16:36:37.181Z,37.10
2017-06-28T16:39:11.079Z,37.10
2017-06-28T16:41:45.078Z,37.90
2017-06-28T16:44:19.434Z,39.20
2017-06-28T16:46:53.307Z,39.00
2017-06-28T16:49:27.017Z,38.40
2017-06-28T16:52:01.642Z,38.40
2017-06-28T16:54:35.449Z,38.40
2017-06-28T16:57:10.092Z,39.10
2017-06-28T16:59:44.651Z,40.30
2017-06-28T17:02:18.637Z,39.60
2017-06-28T17:04:52.414Z,39.40
2017-06-28T17:07:27.021Z,40.50
2017-06-28T17:10:00.813Z,40.50
2017-06-28T17:12:34.553Z,40.80
2017-06-28T17:15:08.222Z,40.70
2017-06-28T17:17:42.965Z,41.80
2017-06-28T17:20:17.446Z,41.40
2017-06-28T17:22:51.439Z,41.60
2017-06-28T17:25:25.877Z,43.00
2017-06-28T17:28:00.654Z,42.10
2017-06-28T17:30:34.447Z,42.10
2017-06-28T17:33:08.097Z,42.30
2017-06-28T17:35:42.546Z,42.90
2017-06-28T17:38:17.445Z,42.80
2017-06-28T17:40:52.005Z,44.10
2017-06-28T17:43:26.758Z,43.50
2017-06-28T17:46:00.666Z,43.30
2017-06-28T17:48:34.650Z,42.20
2017-06-28T17:51:09.174Z,42.90
2017-06-28T17:53:42.941Z,41.80
2017-06-28T17:56:17.492Z,41.10
2017-06-28T17:58:51.621Z,41.00
2017-06-28T18:01:25.193Z,40.90
2017-06-28T18:03:59.136Z,41.00
2017-06-28T18:06:32.789Z,42.10
2017-06-28T18:09:06.566Z,42.30
2017-06-28T18:11:41.040Z,43.60
2017-06-28T18:14:15.922Z,43.60
2017-06-28T18:16:49.780Z,43.70
2017-06-28T18:19:23.729Z,44.20
2017-06-28T18:21:57.284Z,44.70
2017-06-28T18:24:31.932Z,44.60
2017-06-28T18:27:05.768Z,44.60
2017-06-28T18:29:39.545Z,45.10
2017-06-28T18:32:13.305Z,44.50
2017-06-28T18:34:49.005Z,45.20
2017-06-28T18:37:22.846Z,45.00
2017-06-28T18:39:56.651Z,45.10
2017-06-28T18:42:30.244Z,46.70
2017-06-28T18:45:04.869Z,46.00
2017-06-28T18:47:38.877Z,45.10
2017-06-28T18:50:12.573Z,45.80
2017-06-28T18:52:47.106Z,45.20
2017-06-28T18:55:20.945Z,45.50
2017-06-28T18:57:54.589Z,45.30
2017-06-28T19:00:29.130Z,45.40
2017-06-28T19:03:02.997Z,45.40
2017-06-28T19:05:36.969Z,46.30
2017-06-28T19:08:10.658Z,46.20
2017-06-28T19:10:45.188Z,48.00
2017-06-28T19:13:19.034Z,48.00
2017-06-28T19:15:53.585Z,49.10
2017-06-28T19:18:27.241Z,48.60
2017-06-28T19:21:00.921Z,50.50
2017-06-28T19:23:34.647Z,49.50
2017-06-28T19:26:09.138Z,51.10
2017-06-28T19:28:43.009Z,51.00
2017-06-28T19:31:17.505Z,53.30
2017-06-28T19:33:51.417Z,53.30
2017-06-28T19:36:27.217Z,55.40
2017-06-28T19:39:01.050Z,55.30
2017-06-28T19:41:35.741Z,56.10
2017-06-28T19:44:09.601Z,56.00
2017-06-28T19:46:43.270Z,55.80
2017-06-28T19:49:16.985Z,56.20
2017-06-28T19:51:50.893Z,56.50
2017-06-28T19:54:24.542Z,55.70
2017-06-28T19:56:59.194Z,58.60
2017-06-28T19:59:32.955Z,58.10
2017-06-28T20:02:06.808Z,58.60
2017-06-28T20:04:40.530Z,58.30
2017-06-28T20:07:15.053Z,59.80
2017-06-28T20:09:49.061Z,59.70
2017-06-28T20:12:23.689Z,58.90
2017-06-28T20:14:57.294Z,58.90
2017-06-28T20:17:32.012Z,58.70
2017-06-28T20:20:05.931Z,58.70
2017-06-28T20:22:40.578Z,61.50
2017-06-28T20:25:15.245Z,59.90
2017-06-28T20:27:49.305Z,59.90
2017-06-28T20:30:23.673Z,59.90
2017-06-28T20:32:57.713Z,59.90
2017-06-28T20:35:31.417Z,59.90
2017-06-28T20:38:05.297Z,59.60
2017-06-28T20:40:39.721Z,60.30
2017-06-28T20:43:14.794Z,60.60
2017-06-28T20:45:49.374Z,60.90
2017-06-28T20:48:23.474Z,60.80
2017-06-28T20:50:58.729Z,61.50
2017-06-28T20:53:32.740Z,61.50
2017-06-28T20:56:07.265Z,61.90
2017-06-28T20:58:41.528Z,61.90
2017-06-28T21:01:15.253Z,60.60
2017-06-28T21:03:49.053Z,61.60
2017-06-28T21:06:22.733Z,62.20
2017-06-28T21:08:56.633Z,62.30
2017-06-28T21:11:31.175Z,61.80
2017-06-28T21:14:04.828Z,62.50
2017-06-28T21:16:38.504Z,63.00
2017-06-28T21:19:12.900Z,62.90
2017-06-28T21:21:47.669Z,64.80
2017-06-28T21:24:21.653Z,64.80
2017-06-28T21:26:56.101Z,66.00
2017-06-28T21:29:30.310Z,65.20
2017-06-28T21:32:04.827Z,64.60
2017-06-28T21:34:38.728Z,63.30
2017-06-28T21:37:12.409Z,64.00
2017-06-28T21:39:46.855Z,64.00
2017-06-28T21:42:20.662Z,64.10
2017-06-28T21:44:55.186Z,64.80
2017-06-28T21:47:29.194Z,64.80
2017-06-28T21:50:03.822Z,65.30
2017-06-28T21:52:38.410Z,65.00
2017-06-28T21:55:12.521Z,64.80
2017-06-28T21:57:47.144Z,65.80
2017-06-28T22:00:21.188Z,65.80
2017-06-28T22:02:54.962Z,66.80
2017-06-28T22:05:29.397Z,67.30
2017-06-28T22:08:03.122Z,66.30
2017-06-28T22:10:37.720Z,65.70
2017-06-28T22:13:11.573Z,65.70
2017-06-28T22:15:45.333Z,66.10
2017-06-28T22:18:30.890Z,65.50
2017-06-28T22:21:04.701Z,66.80
2017-06-28T22:23:39.029Z,69.20
2017-06-28T22:26:13.149Z,69.10
2017-06-28T22:28:47.696Z,68.40
2017-06-28T22:31:21.376Z,69.80
2017-06-28T22:33:56.027Z,67.80
2017-06-28T22:36:29.821Z,69.00
2017-06-28T22:39:03.538Z,68.20
2017-06-28T22:41:37.340Z,67.00
2017-06-28T22:44:11.117Z,67.80
2017-06-28T22:46:45.688Z,69.60
2017-06-28T22:49:19.274Z,68.50
2017-06-28T22:51:53.140Z,68.20
2017-06-28T22:54:27.665Z,69.40
2017-06-28T22:57:02.341Z,69.30
2017-06-28T22:59:36.412Z,69.20
2017-06-28T23:02:10.291Z,69.00
2017-06-28T23:04:44.829Z,69.20
2017-06-28T23:07:19.649Z,69.10
2017-06-28T23:09:53.353Z,70.10
2017-06-28T23:12:27.093Z,69.90
2017-06-28T23:15:00.786Z,69.00
2017-06-28T23:17:34.441Z,68.70
2017-06-28T23:20:08.194Z,68.70
2017-06-28T23:22:42.067Z,69.20
2017-06-28T23:25:15.746Z,68.70
2017-06-28T23:27:49.571Z,69.50
2017-06-28T23:30:24.861Z,68.00
2017-06-28T23:32:58.942Z,68.00
2017-06-28T23:35:36.647Z,68.80
2017-06-28T23:38:10.453Z,68.40
2017-06-28T23:40:44.094Z,69.00
2017-06-28T23:43:17.948Z,70.30
2017-06-28T23:45:51.552Z,71.10
2017-06-28T23:48:25.576Z,70.60
2017-06-28T23:50:59.994Z,71.30
2017-06-28T23:53:34.131Z,70.20
2017-06-28T23:56:07.868Z,70.50
2017-06-28T23:58:42.289Z,71.00
